Willenhall, United Kingdom
Current Conditions -  °F | °C
As of 11:20 PM on Thursday 27 Nov 2014 (Local Time) from EGBB Reporting Station
Haze Haze  
Wind Chill: 41°   Ceiling: 300
Heat Index: 46°   Visibility: 1.5mi
Dew Point: 46°   Wind: 10mph
Humidity: 100%   Direction: 110°ESE
Pressure: 29.56"   Gusts: NA
Location:  52.6°N, 2.03°W
Report Text: EGBB 272320Z 11009KT 2500 BR BKN003 OVC008 08/08 Q1001
Loading
Personal Weather Stations






























Interactive Weather Map New forecast layout! Learn more

10-Day Weather Forecast

Advertisements
Track Severe Weather on mobile